Time;durP1;ratioP1;P1;durP2;ratioP2;P2;SDS_P1;SDS_P2;PMS_P1;PMS_P2;Temp;Humidity;BMP_temperature;BMP_pressure;BME280_temperature;BME280_humidity;BME280_pressure;Samples;Min_cycle;Max_cycle;Signal;HPM_P1;HPM_P2
2023/03/28 00:01:26;;;;;;;6.22;5.82;;;;;;;;;;5000666;28;20021;-74
2023/03/28 00:03:53;;;;;;;6.05;5.65;;;;;;;;;;5012854;28;20029;-74
2023/03/28 00:06:19;;;;;;;4.10;3.80;;;;;;;;;;5001024;28;20476;-75
2023/03/28 00:08:46;;;;;;;3.05;2.85;;;;;;;;;;4983282;28;20111;-73
2023/03/28 00:11:17;;;;;;;3.20;3.00;;;;;;;;;;5001508;28;20018;-74
2023/03/28 00:13:44;;;;;;;2.97;2.78;;;;;;;;;;5000477;28;20026;-74
2023/03/28 00:16:13;;;;;;;2.95;2.75;;;;;;;;;;5001813;28;20516;-74
2023/03/28 00:18:39;;;;;;;3.03;2.83;;;;;;;;;;4999926;28;20057;-74
2023/03/28 00:21:24;;;;;;;2.42;2.33;;;;;;;;;;4983959;28;20029;-73
2023/03/28 00:23:51;;;;;;;2.10;2.00;;;;;;;;;;5000750;28;20388;-74
2023/03/28 00:26:17;;;;;;;2.60;2.40;;;;;;;;;;5000394;28;21092;-73
2023/03/28 00:28:44;;;;;;;2.05;1.95;;;;;;;;;;5001339;28;20029;-74
2023/03/28 00:31:10;;;;;;;1.98;1.88;;;;;;;;;;4994888;28;20064;-73
2023/03/28 00:33:35;;;;;;;2.53;2.20;;;;;;;;;;5002706;28;20488;-75
2023/03/28 00:36:01;;;;;;;5.22;2.22;;;;;;;;;;4997595;28;20025;-73
2023/03/28 00:38:26;;;;;;;2.95;2.42;;;;;;;;;;5010789;28;20817;-74
2023/03/28 00:40:54;;;;;;;2.78;2.58;;;;;;;;;;5000212;28;20026;-74
2023/03/28 00:43:40;;;;;;;2.40;2.20;;;;;;;;;;5000842;28;20018;-73
2023/03/28 00:46:14;;;;;;;2.22;2.03;;;;;;;;;;5000343;28;20042;-73
2023/03/28 00:48:42;;;;;;;3.15;2.95;;;;;;;;;;4996155;28;20498;-75
2023/03/28 00:51:07;;;;;;;3.67;2.75;;;;;;;;;;5006297;28;20017;-74
2023/03/28 00:53:34;;;;;;;2.70;2.50;;;;;;;;;;5003458;28;20089;-73
2023/03/28 00:56:04;;;;;;;3.17;2.97;;;;;;;;;;5000796;28;20022;-75
2023/03/28 00:58:32;;;;;;;3.05;2.85;;;;;;;;;;5001247;28;20022;-74
2023/03/28 01:00:58;;;;;;;3.55;3.30;;;;;;;;;;5012238;28;20018;-77
2023/03/28 01:03:26;;;;;;;3.70;3.40;;;;;;;;;;5000974;28;20431;-74
2023/03/28 01:05:52;;;;;;;4.75;4.45;;;;;;;;;;4982016;28;20419;-73
2023/03/28 01:08:22;;;;;;;5.03;4.63;;;;;;;;;;5001045;28;20026;-73
2023/03/28 01:10:48;;;;;;;5.38;4.88;;;;;;;;;;5016114;28;20124;-73
2023/03/28 01:13:14;;;;;;;5.00;4.60;;;;;;;;;;5004765;28;20545;-75
2023/03/28 01:15:40;;;;;;;4.07;3.80;;;;;;;;;;4986120;28;20034;-75
2023/03/28 01:18:10;;;;;;;4.55;4.25;;;;;;;;;;4986475;28;20149;-76
2023/03/28 01:20:38;;;;;;;4.40;4.10;;;;;;;;;;5004275;28;20555;-73
2023/03/28 01:23:22;;;;;;;5.28;4.88;;;;;;;;;;4985920;28;20034;-75
2023/03/28 01:25:54;;;;;;;6.15;4.70;;;;;;;;;;5004928;28;20589;-73
2023/03/28 01:28:22;;;;;;;5.25;4.85;;;;;;;;;;5003615;28;20105;-75
2023/03/28 01:31:09;;;;;;;5.50;5.10;;;;;;;;;;4986614;28;20026;-76
2023/03/28 01:33:53;;;;;;;4.88;4.38;;;;;;;;;;5010791;28;20033;-74
2023/03/28 01:36:36;;;;;;;4.28;3.97;;;;;;;;;;5007391;28;20479;-74
2023/03/28 01:39:04;;;;;;;5.10;4.70;;;;;;;;;;5004932;28;20060;-73
2023/03/28 01:41:37;;;;;;;4.90;4.60;;;;;;;;;;4985808;28;20082;-74
2023/03/28 01:44:08;;;;;;;5.80;5.40;;;;;;;;;;5003665;28;20037;-74
2023/03/28 01:46:53;;;;;;;6.18;5.68;;;;;;;;;;5004660;28;20037;-78
2023/03/28 01:49:27;;;;;;;5.80;5.40;;;;;;;;;;5009844;28;20042;-76
2023/03/28 01:51:57;;;;;;;5.35;5.00;;;;;;;;;;4986719;28;20125;-75
2023/03/28 01:54:32;;;;;;;4.97;4.68;;;;;;;;;;4985819;28;20024;-74
2023/03/28 01:57:00;;;;;;;6.00;5.55;;;;;;;;;;5003435;28;20030;-73
2023/03/28 01:59:37;;;;;;;6.55;6.05;;;;;;;;;;5003826;28;20028;-75
2023/03/28 02:02:05;;;;;;;5.85;5.45;;;;;;;;;;5004055;28;20505;-75
2023/03/28 02:04:32;;;;;;;5.95;5.55;;;;;;;;;;5000370;28;20037;-76
2023/03/28 02:06:57;;;;;;;6.47;5.88;;;;;;;;;;5007976;28;20022;-75
2023/03/28 02:09:25;;;;;;;5.85;5.32;;;;;;;;;;5003892;28;20029;-75
2023/03/28 02:11:55;;;;;;;5.72;5.32;;;;;;;;;;4985639;28;20060;-76
2023/03/28 02:14:22;;;;;;;6.20;5.80;;;;;;;;;;5003047;28;20021;-75
2023/03/28 02:16:52;;;;;;;5.72;5.32;;;;;;;;;;4985725;28;20041;-73
2023/03/28 02:19:19;;;;;;;5.68;5.28;;;;;;;;;;5002286;28;20430;-75
2023/03/28 02:21:44;;;;;;;6.05;5.55;;;;;;;;;;4974524;28;20500;-75
2023/03/28 02:24:10;;;;;;;5.88;5.22;;;;;;;;;;4998239;28;20065;-76
2023/03/28 02:26:36;;;;;;;6.47;5.97;;;;;;;;;;5003870;28;20018;-74
2023/03/28 02:29:01;;;;;;;6.45;5.95;;;;;;;;;;5002285;28;20033;-74
2023/03/28 02:31:27;;;;;;;6.47;5.97;;;;;;;;;;4985290;28;20026;-75
2023/03/28 02:33:52;;;;;;;5.95;5.55;;;;;;;;;;5003095;28;20036;-74
2023/03/28 02:36:26;;;;;;;5.95;5.50;;;;;;;;;;5002725;28;20025;-75
2023/03/28 02:39:10;;;;;;;6.93;5.88;;;;;;;;;;5021073;28;20613;-75
2023/03/28 02:41:38;;;;;;;6.53;6.03;;;;;;;;;;4989846;28;20514;-75
2023/03/28 02:44:21;;;;;;;7.28;6.57;;;;;;;;;;5003340;28;20042;-74
2023/03/28 02:46:53;;;;;;;8.00;7.22;;;;;;;;;;5016485;28;20021;-74
2023/03/28 02:49:25;;;;;;;7.38;6.78;;;;;;;;;;5012533;28;20026;-74
2023/03/28 02:51:50;;;;;;;7.18;6.68;;;;;;;;;;5006695;28;20018;-76
2023/03/28 02:54:16;;;;;;;7.30;6.80;;;;;;;;;;4985439;28;20025;-76
2023/03/28 02:56:44;;;;;;;9.65;8.85;;;;;;;;;;5008308;28;20634;-75
2023/03/28 02:59:30;;;;;;;8.33;7.73;;;;;;;;;;5002326;28;20025;-76
2023/03/28 03:01:55;;;;;;;7.40;6.70;;;;;;;;;;4991385;28;20905;-74
2023/03/28 03:04:21;;;;;;;6.97;6.35;;;;;;;;;;5002615;28;20034;-75
2023/03/28 03:06:47;;;;;;;6.80;6.30;;;;;;;;;;5001969;28;20018;-75
2023/03/28 03:09:13;;;;;;;6.00;5.60;;;;;;;;;;5002451;28;20018;-76
2023/03/28 03:11:38;;;;;;;6.43;5.93;;;;;;;;;;5001919;28;20076;-73
2023/03/28 03:14:03;;;;;;;7.05;6.45;;;;;;;;;;5002563;28;20037;-75
2023/03/28 03:16:28;;;;;;;5.72;5.22;;;;;;;;;;4985599;28;20419;-77
2023/03/28 03:18:55;;;;;;;4.88;4.47;;;;;;;;;;5011847;28;20053;-74
2023/03/28 03:21:22;;;;;;;5.40;5.00;;;;;;;;;;5001415;28;20030;-74
2023/03/28 03:23:47;;;;;;;4.15;3.78;;;;;;;;;;5002196;28;20026;-75
2023/03/28 03:26:13;;;;;;;4.43;3.97;;;;;;;;;;5001824;28;20025;-75
2023/03/28 03:28:38;;;;;;;4.00;3.70;;;;;;;;;;5000977;28;20022;-74
2023/03/28 03:31:04;;;;;;;4.25;3.95;;;;;;;;;;4984367;28;20145;-73
2023/03/28 03:33:29;;;;;;;4.28;3.97;;;;;;;;;;4996012;28;20034;-75
2023/03/28 03:35:54;;;;;;;4.40;4.10;;;;;;;;;;5001830;28;20022;-75
2023/03/28 03:38:19;;;;;;;4.22;3.92;;;;;;;;;;5001195;28;20032;-76
2023/03/28 03:40:45;;;;;;;6.68;3.17;;;;;;;;;;5001543;28;20029;-75
2023/03/28 03:43:10;;;;;;;4.20;3.90;;;;;;;;;;4983997;28;20029;-73
2023/03/28 03:45:39;;;;;;;4.63;3.90;;;;;;;;;;5001128;28;20034;-71
2023/03/28 03:48:04;;;;;;;3.97;3.58;;;;;;;;;;4998050;28;20483;-75
2023/03/28 03:50:29;;;;;;;3.67;3.35;;;;;;;;;;4983083;28;20072;-76
2023/03/28 03:52:56;;;;;;;5.57;3.90;;;;;;;;;;5001991;28;20036;-76
2023/03/28 03:55:21;;;;;;;3.67;3.47;;;;;;;;;;5000576;28;20415;-75
2023/03/28 03:57:48;;;;;;;2.92;2.72;;;;;;;;;;4985309;28;20017;-76
2023/03/28 04:00:13;;;;;;;2.95;2.75;;;;;;;;;;5002964;28;20105;-75
2023/03/28 04:02:39;;;;;;;3.08;2.70;;;;;;;;;;5013698;28;20116;-72
2023/03/28 04:05:08;;;;;;;4.43;2.70;;;;;;;;;;5008225;28;20569;-76
2023/03/28 04:07:33;;;;;;;2.85;2.65;;;;;;;;;;5006201;28;20518;-76
2023/03/28 04:09:59;;;;;;;3.28;3.08;;;;;;;;;;5001115;28;20029;-75
2023/03/28 04:12:24;;;;;;;3.38;3.17;;;;;;;;;;5000462;28;20058;-75
2023/03/28 04:14:49;;;;;;;3.40;3.20;;;;;;;;;;5001439;28;20041;-74
2023/03/28 04:17:16;;;;;;;3.58;3.30;;;;;;;;;;5001041;28;20138;-73
2023/03/28 04:19:42;;;;;;;2.95;2.65;;;;;;;;;;5017355;28;20021;-73
2023/03/28 04:22:11;;;;;;;3.25;3.05;;;;;;;;;;5018215;28;20451;-73
2023/03/28 04:24:40;;;;;;;2.47;2.28;;;;;;;;;;5001807;28;20030;-76
2023/03/28 04:27:08;;;;;;;2.35;2.25;;;;;;;;;;5001366;28;20924;-73
2023/03/28 04:29:33;;;;;;;2.50;2.30;;;;;;;;;;5000631;28;20071;-74
2023/03/28 04:31:58;;;;;;;3.00;2.70;;;;;;;;;;5001463;28;20475;-73
2023/03/28 04:34:28;;;;;;;2.63;2.42;;;;;;;;;;4982386;28;20025;-74
2023/03/28 04:36:55;;;;;;;;;;;;;;;;;;5001645;28;20033;-73
2023/03/28 04:39:21;;;;;;;2.63;2.40;;;;;;;;;;5000362;28;19948;-74
2023/03/28 04:41:46;;;;;;;2.83;2.60;;;;;;;;;;5001148;28;20049;-73
2023/03/28 04:44:11;;;;;;;3.17;2.97;;;;;;;;;;4994463;28;20125;-72
2023/03/28 04:46:36;;;;;;;4.68;3.10;;;;;;;;;;5018957;28;20017;-73
2023/03/28 04:49:02;;;;;;;2.83;2.63;;;;;;;;;;5017693;28;20062;-75
2023/03/28 04:51:27;;;;;;;2.65;2.28;;;;;;;;;;4986609;28;20037;-75
2023/03/28 04:53:53;;;;;;;2.40;2.30;;;;;;;;;;5005458;28;20211;-73
2023/03/28 04:56:18;;;;;;;3.35;2.33;;;;;;;;;;4987533;28;20057;-77
2023/03/28 04:58:44;;;;;;;2.60;2.40;;;;;;;;;;5004925;28;20061;-75
2023/03/28 05:01:09;;;;;;;2.50;2.30;;;;;;;;;;5000291;28;20109;-77
2023/03/28 05:03:35;;;;;;;2.97;2.78;;;;;;;;;;5007234;28;20402;-76
2023/03/28 05:06:00;;;;;;;2.50;2.30;;;;;;;;;;4988325;28;20488;-75
2023/03/28 05:08:26;;;;;;;4.07;3.20;;;;;;;;;;5003097;28;20034;-74
2023/03/28 05:10:52;;;;;;;3.40;3.20;;;;;;;;;;5004815;28;20301;-75
2023/03/28 05:13:17;;;;;;;3.83;3.15;;;;;;;;;;5005013;28;20076;-76
2023/03/28 05:15:44;;;;;;;3.60;3.30;;;;;;;;;;5010635;28;20027;-75
2023/03/28 05:18:10;;;;;;;4.00;3.70;;;;;;;;;;5013245;28;20128;-74
2023/03/28 05:20:36;;;;;;;4.45;3.72;;;;;;;;;;4986776;28;20104;-76
2023/03/28 05:23:02;;;;;;;4.10;3.80;;;;;;;;;;5004271;28;20010;-74
2023/03/28 05:25:27;;;;;;;5.18;4.43;;;;;;;;;;5003355;28;20034;-76
2023/03/28 05:27:53;;;;;;;7.88;4.90;;;;;;;;;;5002643;28;20041;-77
2023/03/28 05:30:19;;;;;;;5.53;5.03;;;;;;;;;;5000820;28;20060;-75
2023/03/28 05:32:44;;;;;;;6.07;5.57;;;;;;;;;;5010807;28;20028;-73
2023/03/28 05:35:11;;;;;;;8.20;6.30;;;;;;;;;;5012674;28;20025;-75
2023/03/28 05:37:36;;;;;;;5.88;5.20;;;;;;;;;;5019364;28;20030;-76
2023/03/28 05:40:09;;;;;;;6.80;6.20;;;;;;;;;;5001613;28;20060;-75
2023/03/28 05:42:34;;;;;;;5.97;5.47;;;;;;;;;;5000979;28;20049;-75
2023/03/28 05:45:00;;;;;;;6.18;5.68;;;;;;;;;;5010724;28;20034;-75
2023/03/28 05:47:26;;;;;;;6.03;5.43;;;;;;;;;;5023794;28;20015;-76
2023/03/28 05:49:51;;;;;;;5.57;5.07;;;;;;;;;;5008197;28;20488;-73
2023/03/28 05:52:16;;;;;;;5.05;4.65;;;;;;;;;;5006831;28;20484;-75
2023/03/28 05:54:42;;;;;;;5.75;5.30;;;;;;;;;;4984340;28;20025;-73
2023/03/28 05:57:07;;;;;;;6.13;5.57;;;;;;;;;;4999467;28;20024;-76
2023/03/28 05:59:32;;;;;;;6.18;5.57;;;;;;;;;;4984865;28;20026;-74
2023/03/28 06:01:58;;;;;;;5.15;4.75;;;;;;;;;;5002799;28;20048;-75
2023/03/28 06:04:24;;;;;;;9.02;5.35;;;;;;;;;;4984104;28;20060;-73
2023/03/28 06:06:50;;;;;;;5.95;5.47;;;;;;;;;;4987020;28;20110;-75
2023/03/28 06:09:15;;;;;;;5.80;5.25;;;;;;;;;;4998471;28;20482;-72
2023/03/28 06:11:42;;;;;;;6.03;5.47;;;;;;;;;;5002430;28;20083;-73
2023/03/28 06:14:08;;;;;;;5.28;4.88;;;;;;;;;;5002569;28;20021;-73
2023/03/28 06:16:35;;;;;;;13.38;5.05;;;;;;;;;;5003742;28;20085;-76
2023/03/28 06:19:00;;;;;;;6.10;5.60;;;;;;;;;;5009071;28;20093;-74
2023/03/28 06:21:26;;;;;;;5.38;4.88;;;;;;;;;;5005340;28;20030;-77
2023/03/28 06:23:51;;;;;;;4.72;4.32;;;;;;;;;;5009353;28;20175;-75
2023/03/28 06:26:17;;;;;;;4.38;4.07;;;;;;;;;;5007817;28;20034;-76
2023/03/28 06:28:42;;;;;;;6.30;3.72;;;;;;;;;;5008399;28;20022;-76
2023/03/28 06:31:09;;;;;;;13.20;3.90;;;;;;;;;;5008857;28;20475;-75
2023/03/28 06:33:35;;;;;;;3.88;3.40;;;;;;;;;;5004907;28;20029;-76
2023/03/28 06:36:00;;;;;;;5.03;3.22;;;;;;;;;;5014594;28;20032;-75
2023/03/28 06:38:26;;;;;;;3.70;3.33;;;;;;;;;;5002866;28;20603;-77
2023/03/28 06:40:51;;;;;;;4.45;3.10;;;;;;;;;;4999298;28;20105;-80
2023/03/28 06:43:30;;;;;;;2.93;2.73;;;;;;;;;;4999884;28;20564;-76
2023/03/28 06:45:55;;;;;;;5.40;2.35;;;;;;;;;;4992439;28;20300;-78
2023/03/28 06:48:20;;;;;;;3.75;2.72;;;;;;;;;;4991225;28;20799;-77
2023/03/28 06:50:49;;;;;;;3.00;2.70;;;;;;;;;;5015452;28;20029;-78
2023/03/28 06:53:14;;;;;;;3.88;2.50;;;;;;;;;;5020460;28;20265;-79
2023/03/28 06:55:40;;;;;;;7.35;3.03;;;;;;;;;;5016313;28;20030;-78
2023/03/28 06:58:06;;;;;;;3.50;2.67;;;;;;;;;;5002606;28;20029;-76
2023/03/28 07:00:32;;;;;;;3.47;2.72;;;;;;;;;;4990813;28;20022;-78
2023/03/28 07:02:57;;;;;;;4.82;2.90;;;;;;;;;;5009211;28;20164;-78
2023/03/28 07:05:22;;;;;;;3.67;3.30;;;;;;;;;;5014642;28;20538;-77
2023/03/28 07:07:48;;;;;;;3.20;3.00;;;;;;;;;;4975155;28;20030;-77
2023/03/28 07:10:13;;;;;;;3.40;3.10;;;;;;;;;;5021247;28;20026;-75
2023/03/28 07:12:39;;;;;;;3.80;3.50;;;;;;;;;;5008721;28;20025;-77
2023/03/28 07:15:04;;;;;;;4.10;3.42;;;;;;;;;;5005682;28;20404;-76
2023/03/28 07:17:30;;;;;;;3.10;2.90;;;;;;;;;;5005997;28;20033;-78
2023/03/28 07:19:56;;;;;;;4.90;3.90;;;;;;;;;;5015898;28;20030;-79
2023/03/28 07:22:21;;;;;;;3.75;3.45;;;;;;;;;;4986771;28;20026;-78
2023/03/28 07:24:46;;;;;;;3.80;3.20;;;;;;;;;;5002172;28;20101;-77
2023/03/28 07:27:12;;;;;;;4.30;3.85;;;;;;;;;;4990385;28;20030;-78
2023/03/28 07:29:37;;;;;;;4.22;3.92;;;;;;;;;;4998077;28;20051;-78
2023/03/28 07:32:02;;;;;;;5.47;3.88;;;;;;;;;;5000079;28;20014;-79
2023/03/28 07:34:28;;;;;;;4.40;4.10;;;;;;;;;;5000053;28;20013;-77
2023/03/28 07:36:53;;;;;;;4.35;3.95;;;;;;;;;;4988212;28;20039;-75
2023/03/28 07:39:18;;;;;;;4.80;3.58;;;;;;;;;;5006039;28;20034;-79
2023/03/28 07:41:44;;;;;;;6.13;3.92;;;;;;;;;;5009486;28;20052;-79
2023/03/28 07:44:09;;;;;;;3.50;3.30;;;;;;;;;;4999285;28;20028;-79
2023/03/28 07:46:36;;;;;;;4.45;3.70;;;;;;;;;;5008813;28;20022;-78
2023/03/28 07:49:01;;;;;;;3.97;3.67;;;;;;;;;;5016804;28;20036;-79
2023/03/28 07:51:27;;;;;;;9.55;4.05;;;;;;;;;;5000743;28;20400;-76
2023/03/28 07:53:52;;;;;;;3.60;3.30;;;;;;;;;;5004400;28;20061;-78
2023/03/28 07:56:17;;;;;;;3.45;3.15;;;;;;;;;;4998158;28;20022;-74
2023/03/28 07:58:42;;;;;;;3.90;3.55;;;;;;;;;;5005169;28;20029;-77
2023/03/28 08:01:11;;;;;;;4.25;3.95;;;;;;;;;;4978060;28;20581;-76
2023/03/28 08:03:37;;;;;;;7.10;3.50;;;;;;;;;;5002967;28;20041;-75
2023/03/28 08:06:06;;;;;;;3.75;3.40;;;;;;;;;;5020081;28;20045;-74
2023/03/28 08:08:31;;;;;;;4.10;3.65;;;;;;;;;;4998315;28;20058;-76
2023/03/28 08:10:57;;;;;;;3.75;3.45;;;;;;;;;;4985114;28;20026;-78
2023/03/28 08:13:23;;;;;;;3.50;3.20;;;;;;;;;;5006321;28;20105;-78
2023/03/28 08:15:49;;;;;;;4.55;3.67;;;;;;;;;;5006516;28;20022;-78
2023/03/28 08:18:19;;;;;;;4.97;3.15;;;;;;;;;;5006581;28;20913;-77
2023/03/28 08:20:45;;;;;;;3.55;3.25;;;;;;;;;;5008252;28;20030;-77
2023/03/28 08:23:11;;;;;;;3.80;3.50;;;;;;;;;;5018429;28;20025;-76
2023/03/28 08:25:36;;;;;;;4.75;3.15;;;;;;;;;;5007321;28;20049;-78
2023/03/28 08:28:02;;;;;;;4.13;3.33;;;;;;;;;;5004667;28;20022;-77
2023/03/28 08:30:30;;;;;;;3.65;3.35;;;;;;;;;;5003488;28;20265;-77
2023/03/28 08:32:55;;;;;;;3.85;3.30;;;;;;;;;;5004019;28;20044;-78
2023/03/28 08:35:20;;;;;;;4.32;3.40;;;;;;;;;;5003749;28;20026;-76
2023/03/28 08:37:46;;;;;;;6.93;3.80;;;;;;;;;;4989659;28;20410;-78
2023/03/28 08:40:16;;;;;;;3.50;3.20;;;;;;;;;;4998904;28;20056;-76
2023/03/28 08:43:00;;;;;;;4.82;4.10;;;;;;;;;;4984792;28;20027;-78
2023/03/28 08:45:31;;;;;;;4.32;3.90;;;;;;;;;;5001564;28;20044;-77
2023/03/28 08:47:56;;;;;;;5.43;3.70;;;;;;;;;;5013942;28;20100;-78
2023/03/28 08:50:38;;;;;;;4.18;3.78;;;;;;;;;;5004601;28;20088;-76
2023/03/28 08:53:03;;;;;;;6.40;3.67;;;;;;;;;;4993035;28;20025;-76
2023/03/28 08:55:29;;;;;;;5.88;4.53;;;;;;;;;;5008699;28;20097;-78
2023/03/28 08:57:55;;;;;;;5.65;4.63;;;;;;;;;;5021500;28;20138;-76
2023/03/28 09:00:23;;;;;;;5.85;3.80;;;;;;;;;;5020551;28;20102;-75
2023/03/28 09:02:49;;;;;;;4.00;3.70;;;;;;;;;;5008282;28;20026;-75
2023/03/28 09:05:15;;;;;;;5.85;4.30;;;;;;;;;;4986952;28;20096;-78
2023/03/28 09:07:59;;;;;;;3.75;3.45;;;;;;;;;;4985654;28;20104;-79
2023/03/28 09:10:43;;;;;;;4.10;3.80;;;;;;;;;;4981643;28;20696;-75
2023/03/28 09:13:44;;;;;;;7.10;3.92;;;;;;;;;;4993446;28;20535;-77
2023/03/28 09:16:13;;;;;;;5.10;3.75;;;;;;;;;;4962788;28;20541;-75
2023/03/28 09:18:50;;;;;;;3.70;3.20;;;;;;;;;;4993228;28;20137;-76
2023/03/28 09:21:20;;;;;;;3.67;3.38;;;;;;;;;;4992823;28;20033;-80
2023/03/28 09:23:52;;;;;;;3.95;3.65;;;;;;;;;;5008299;28;20022;-78
2023/03/28 09:26:28;;;;;;;3.50;3.20;;;;;;;;;;4989291;28;20492;-79
2023/03/28 09:29:00;;;;;;;5.47;3.83;;;;;;;;;;4996937;28;20041;-76
2023/03/28 09:31:29;;;;;;;3.70;3.40;;;;;;;;;;5010498;28;20095;-76
2023/03/28 09:33:57;;;;;;;3.67;3.47;;;;;;;;;;4994045;28;20646;-78
2023/03/28 09:36:26;;;;;;;3.60;3.30;;;;;;;;;;5024308;28;20029;-76
2023/03/28 09:38:53;;;;;;;3.80;3.38;;;;;;;;;;4991111;28;20026;-76
2023/03/28 09:41:24;;;;;;;4.97;3.15;;;;;;;;;;5016745;28;20026;-78
2023/03/28 09:43:58;;;;;;;5.03;3.35;;;;;;;;;;5012163;28;20472;-76
2023/03/28 09:46:27;;;;;;;3.40;3.17;;;;;;;;;;5007782;28;20042;-76
2023/03/28 09:48:53;;;;;;;5.15;3.10;;;;;;;;;;4989068;28;20060;-77
2023/03/28 09:51:18;;;;;;;3.80;3.50;;;;;;;;;;4994909;28;20025;-76
2023/03/28 09:53:44;;;;;;;3.13;2.90;;;;;;;;;;5002353;28;20076;-76
2023/03/28 09:56:12;;;;;;;3.50;3.20;;;;;;;;;;5008859;28;20022;-79
2023/03/28 09:58:48;;;;;;;3.35;3.05;;;;;;;;;;5001454;28;20014;-76
2023/03/28 10:01:23;;;;;;;5.50;3.10;;;;;;;;;;4990787;28;20565;-77
2023/03/28 10:03:57;;;;;;;6.43;3.38;;;;;;;;;;5009716;28;20033;-75
2023/03/28 10:06:24;;;;;;;3.30;3.00;;;;;;;;;;5006192;28;20037;-75
2023/03/28 10:08:50;;;;;;;3.33;2.65;;;;;;;;;;5005531;28;20029;-77
2023/03/28 10:11:17;;;;;;;3.10;2.90;;;;;;;;;;4999956;28;20061;-77
2023/03/28 10:13:46;;;;;;;3.75;3.45;;;;;;;;;;5016093;28;20021;-77
2023/03/28 10:16:13;;;;;;;2.85;2.65;;;;;;;;;;5004028;28;20014;-78
2023/03/28 10:18:40;;;;;;;4.57;2.50;;;;;;;;;;4990322;28;20046;-78
2023/03/28 10:21:09;;;;;;;3.47;3.17;;;;;;;;;;4994637;28;20034;-77
2023/03/28 10:23:35;;;;;;;5.70;3.28;;;;;;;;;;5007464;28;20089;-78
2023/03/28 10:26:02;;;;;;;3.70;3.40;;;;;;;;;;4980699;28;20034;-76
2023/03/28 10:28:32;;;;;;;3.40;3.10;;;;;;;;;;4986586;28;20097;-78
2023/03/28 10:31:00;;;;;;;4.53;3.22;;;;;;;;;;4986249;28;20034;-76
2023/03/28 10:33:28;;;;;;;4.32;3.38;;;;;;;;;;4987430;28;20109;-76
2023/03/28 10:35:56;;;;;;;3.42;3.22;;;;;;;;;;4999238;28;20480;-77
2023/03/28 10:38:23;;;;;;;3.55;3.35;;;;;;;;;;4995683;28;20076;-78
2023/03/28 10:41:12;;;;;;;3.20;2.97;;;;;;;;;;4990941;28;20030;-75
2023/03/28 10:43:38;;;;;;;3.65;3.35;;;;;;;;;;4968703;28;20046;-76
2023/03/28 10:46:07;;;;;;;3.08;2.88;;;;;;;;;;4976664;28;20039;-77
2023/03/28 10:48:33;;;;;;;4.30;3.13;;;;;;;;;;4980349;28;20018;-79
2023/03/28 10:51:02;;;;;;;3.20;2.67;;;;;;;;;;4986849;28;20039;-76
2023/03/28 10:53:35;;;;;;;4.38;3.05;;;;;;;;;;4992461;28;20015;-81
2023/03/28 10:56:09;;;;;;;3.85;3.55;;;;;;;;;;5001599;28;20514;-78
2023/03/28 10:58:41;;;;;;;4.60;3.28;;;;;;;;;;4989559;28;20032;-75
2023/03/28 11:01:06;;;;;;;2.85;2.65;;;;;;;;;;4998451;28;20511;-79
2023/03/28 11:03:31;;;;;;;3.00;2.80;;;;;;;;;;5003725;28;20029;-79
2023/03/28 11:06:01;;;;;;;3.80;3.30;;;;;;;;;;4995231;28;20484;-76
2023/03/28 11:08:42;;;;;;;3.25;2.95;;;;;;;;;;4987308;28;20257;-78
2023/03/28 11:11:16;;;;;;;3.60;3.10;;;;;;;;;;4982730;28;20045;-76
2023/03/28 11:13:42;;;;;;;3.80;2.90;;;;;;;;;;4984775;28;20030;-76
2023/03/28 11:16:16;;;;;;;3.30;3.03;;;;;;;;;;4978798;28;20026;-79
2023/03/28 11:18:44;;;;;;;3.70;3.40;;;;;;;;;;5005445;28;20050;-75
2023/03/28 11:21:18;;;;;;;3.78;3.25;;;;;;;;;;5012935;28;20021;-80
2023/03/28 11:23:50;;;;;;;3.33;2.85;;;;;;;;;;4999023;28;20060;-79
2023/03/28 11:26:29;;;;;;;5.28;3.10;;;;;;;;;;5001836;28;20515;-78
2023/03/28 11:29:01;;;;;;;4.50;3.17;;;;;;;;;;5010645;28;20491;-78
2023/03/28 11:31:34;;;;;;;3.10;2.78;;;;;;;;;;5008850;28;20494;-78
2023/03/28 11:34:12;;;;;;;3.65;2.60;;;;;;;;;;5004309;28;20572;-79
2023/03/28 11:36:37;;;;;;;5.28;2.90;;;;;;;;;;5007598;28;20044;-80
2023/03/28 11:39:21;;;;;;;4.03;3.08;;;;;;;;;;5005698;28;20881;-77
2023/03/28 11:41:49;;;;;;;2.75;2.42;;;;;;;;;;5006699;28;20066;-77
2023/03/28 11:44:23;;;;;;;3.97;2.67;;;;;;;;;;4988216;28;20089;-75
2023/03/28 11:46:55;;;;;;;4.88;4.07;;;;;;;;;;4991473;28;20065;-79
2023/03/28 11:49:23;;;;;;;3.00;2.70;;;;;;;;;;5007180;28;20017;-75
2023/03/28 11:51:48;;;;;;;2.75;2.55;;;;;;;;;;5007136;28;20033;-79
2023/03/28 11:54:15;;;;;;;2.65;2.45;;;;;;;;;;5002512;28;20037;-76
2023/03/28 11:56:55;;;;;;;3.70;2.63;;;;;;;;;;5003481;28;20080;-77
2023/03/28 11:59:22;;;;;;;;;;;;;;;;;;4990036;28;20050;-74
2023/03/28 12:01:49;;;;;;;3.28;2.58;;;;;;;;;;5007559;28;19999;-75
2023/03/28 12:04:17;;;;;;;3.25;2.95;;;;;;;;;;5008216;28;20081;-74
2023/03/28 12:06:52;;;;;;;3.47;2.50;;;;;;;;;;5002644;28;20025;-79
2023/03/28 12:09:26;;;;;;;2.15;1.90;;;;;;;;;;5010240;28;20089;-76
2023/03/28 12:11:55;;;;;;;2.92;2.72;;;;;;;;;;5008834;28;20076;-79
2023/03/28 12:14:32;;;;;;;4.47;2.67;;;;;;;;;;4995264;28;20022;-77
2023/03/28 12:16:58;;;;;;;3.97;2.90;;;;;;;;;;5013482;28;20029;-78
2023/03/28 12:19:36;;;;;;;3.25;2.60;;;;;;;;;;4999160;28;20029;-75
2023/03/28 12:22:08;;;;;;;2.65;2.30;;;;;;;;;;4981501;28;20557;-77
2023/03/28 12:24:36;;;;;;;2.88;2.63;;;;;;;;;;4999057;28;20117;-76
2023/03/28 12:27:01;;;;;;;4.38;2.67;;;;;;;;;;5000136;28;20044;-76
2023/03/28 12:29:26;;;;;;;3.65;2.40;;;;;;;;;;5001523;28;20072;-78
2023/03/28 12:31:55;;;;;;;3.67;2.53;;;;;;;;;;5002304;28;20081;-74
2023/03/28 12:34:25;;;;;;;4.57;3.03;;;;;;;;;;5000338;28;20079;-78
2023/03/28 12:37:13;;;;;;;2.45;2.20;;;;;;;;;;5006116;28;20033;-76
2023/03/28 12:39:42;;;;;;;3.83;2.95;;;;;;;;;;5003789;28;20072;-77
2023/03/28 12:42:10;;;;;;;2.53;2.33;;;;;;;;;;5014595;28;20471;-79
2023/03/28 12:44:43;;;;;;;2.10;2.00;;;;;;;;;;4996372;28;20069;-78
2023/03/28 12:47:21;;;;;;;2.30;2.10;;;;;;;;;;5013277;28;20027;-78
2023/03/28 12:49:48;;;;;;;3.03;2.30;;;;;;;;;;5012097;28;20109;-76
2023/03/28 12:52:16;;;;;;;2.22;2.03;;;;;;;;;;5000547;28;20049;-74
2023/03/28 12:55:10;;;;;;;2.88;2.38;;;;;;;;;;5000535;28;20257;-74
2023/03/28 12:57:39;;;;;;;2.50;2.20;;;;;;;;;;4982240;28;20091;-79
2023/03/28 13:00:11;;;;;;;3.97;2.35;;;;;;;;;;5001293;28;20022;-78
2023/03/28 13:02:52;;;;;;;1.95;1.77;;;;;;;;;;4991473;28;20022;-77
2023/03/28 13:05:36;;;;;;;3.35;2.35;;;;;;;;;;5001180;28;20037;-77
2023/03/28 13:08:05;;;;;;;3.15;2.20;;;;;;;;;;5010293;28;20025;-76
2023/03/28 13:10:45;;;;;;;3.45;2.30;;;;;;;;;;4991679;28;20065;-78
2023/03/28 13:13:29;;;;;;;2.00;1.90;;;;;;;;;;5004379;28;20033;-77
2023/03/28 13:16:02;;;;;;;2.88;2.40;;;;;;;;;;5005611;28;20514;-75
2023/03/28 13:18:30;;;;;;;2.92;2.50;;;;;;;;;;5005201;28;20045;-75
2023/03/28 13:20:56;;;;;;;4.32;2.10;;;;;;;;;;5007618;28;20018;-75
2023/03/28 13:23:28;;;;;;;5.53;2.33;;;;;;;;;;5012320;28;20013;-77
2023/03/28 13:25:55;;;;;;;3.15;2.35;;;;;;;;;;5016135;28;20041;-75
2023/03/28 13:28:28;;;;;;;2.28;2.10;;;;;;;;;;4999575;28;20076;-76
2023/03/28 13:31:03;;;;;;;2.45;2.17;;;;;;;;;;5004677;28;20441;-74
2023/03/28 13:33:31;;;;;;;7.88;2.33;;;;;;;;;;5004375;28;20015;-76
2023/03/28 13:35:56;;;;;;;2.53;1.75;;;;;;;;;;5017570;28;20060;-79
2023/03/28 13:38:22;;;;;;;2.40;1.92;;;;;;;;;;5003807;28;20049;-76
2023/03/28 13:40:50;;;;;;;3.33;2.37;;;;;;;;;;5009030;28;20060;-76
2023/03/28 13:43:21;;;;;;;2.40;2.20;;;;;;;;;;4987381;28;20906;-76
2023/03/28 13:45:48;;;;;;;2.38;2.17;;;;;;;;;;5005084;28;20410;-76
2023/03/28 13:48:14;;;;;;;2.10;1.90;;;;;;;;;;5007534;28;20013;-78
2023/03/28 13:50:39;;;;;;;2.08;1.85;;;;;;;;;;5010421;28;20407;-76
2023/03/28 13:53:05;;;;;;;1.92;1.80;;;;;;;;;;5012682;28;20040;-79
2023/03/28 13:55:30;;;;;;;3.28;1.85;;;;;;;;;;5004196;28;20375;-77
2023/03/28 13:57:59;;;;;;;2.30;1.77;;;;;;;;;;5017968;28;20022;-74
2023/03/28 14:00:25;;;;;;;3.30;2.10;;;;;;;;;;5017953;28;20034;-77
2023/03/28 14:02:52;;;;;;;2.80;2.00;;;;;;;;;;4987149;28;20083;-79
2023/03/28 14:05:22;;;;;;;3.42;2.10;;;;;;;;;;5000837;28;20038;-77
2023/03/28 14:07:49;;;;;;;3.47;1.77;;;;;;;;;;5006089;28;20076;-75
2023/03/28 14:10:46;;;;;;;1.92;1.60;;;;;;;;;;5007662;28;20036;-80
2023/03/28 14:13:20;;;;;;;3.20;1.67;;;;;;;;;;4963125;28;20038;-78
2023/03/28 14:15:45;;;;;;;1.50;1.40;;;;;;;;;;4985407;28;20049;-73
2023/03/28 14:18:13;;;;;;;1.73;1.60;;;;;;;;;;4993166;28;20491;-75
2023/03/28 14:20:41;;;;;;;2.17;1.70;;;;;;;;;;4972513;28;20077;-73
2023/03/28 14:23:06;;;;;;;1.98;1.88;;;;;;;;;;5002428;28;20041;-77
2023/03/28 14:25:31;;;;;;;2.47;1.63;;;;;;;;;;5002143;28;20677;-78
2023/03/28 14:28:05;;;;;;;2.05;1.85;;;;;;;;;;5009280;28;20125;-78
2023/03/28 14:30:36;;;;;;;2.08;1.50;;;;;;;;;;5010760;28;20032;-79
2023/03/28 14:33:07;;;;;;;1.40;1.30;;;;;;;;;;5006292;28;20084;-76
2023/03/28 14:35:36;;;;;;;1.63;1.50;;;;;;;;;;4986389;28;20113;-78
2023/03/28 14:38:06;;;;;;;3.35;1.60;;;;;;;;;;5004047;28;20022;-78
2023/03/28 14:40:39;;;;;;;5.95;1.60;;;;;;;;;;4987770;28;20141;-77
2023/03/28 14:43:06;;;;;;;3.53;1.42;;;;;;;;;;5007537;28;20514;-76
2023/03/28 14:45:42;;;;;;;2.70;1.30;;;;;;;;;;5005191;28;20034;-77
2023/03/28 14:48:12;;;;;;;1.83;1.63;;;;;;;;;;5004088;28;20053;-79
2023/03/28 14:50:38;;;;;;;4.97;1.30;;;;;;;;;;4995364;28;20052;-79
2023/03/28 14:53:32;;;;;;;3.45;1.60;;;;;;;;;;5006032;28;20073;-77